createdAt,value
2023-04-19T00:02:21.286Z,92921.28
2023-04-19T00:04:49.270Z,92914.28
2023-04-19T00:07:18.724Z,92915.97
2023-04-19T00:09:45.985Z,92903.53
2023-04-19T00:12:13.668Z,92904.03
2023-04-19T00:14:41.016Z,92911.16
2023-04-19T00:17:08.620Z,92909.81
2023-04-19T00:19:36.931Z,92902.75
2023-04-19T00:22:04.295Z,92895.25
2023-04-19T00:24:31.544Z,92890.72
2023-04-19T00:26:59.493Z,92885.94
2023-04-19T00:29:26.852Z,92891.69
2023-04-19T00:31:54.206Z,92886.31
2023-04-19T00:34:21.856Z,92889.00
2023-04-19T00:36:49.156Z,92890.91
2023-04-19T00:39:16.498Z,92871.91
2023-04-19T00:41:44.184Z,92876.34
2023-04-19T00:44:11.402Z,92875.34
2023-04-19T00:46:39.357Z,92872.53
2023-04-19T00:49:07.756Z,92875.53
2023-04-19T00:51:35.380Z,92874.03
2023-04-19T00:54:04.874Z,92877.06
2023-04-19T00:56:34.393Z,92875.41
2023-04-19T00:59:02.225Z,92879.72
2023-04-19T01:01:30.832Z,92876.97
2023-04-19T01:03:59.120Z,92878.56
2023-04-19T01:06:28.298Z,92880.94
2023-04-19T01:08:55.889Z,92880.28
2023-04-19T01:11:24.481Z,92884.25
2023-04-19T01:13:52.435Z,92882.84
2023-04-19T01:16:20.027Z,92884.50
2023-04-19T01:18:49.833Z,92873.44
2023-04-19T01:21:17.490Z,92876.59
2023-04-19T01:23:45.623Z,92878.56
2023-04-19T01:26:13.525Z,92872.38
2023-04-19T01:28:40.837Z,92872.00
2023-04-19T01:31:09.755Z,92868.34
2023-04-19T01:33:38.149Z,92870.19
2023-04-19T01:36:09.793Z,92870.34
2023-04-19T01:38:37.058Z,92866.44
2023-04-19T01:41:04.745Z,92867.31
2023-04-19T01:43:31.998Z,92869.88
2023-04-19T01:45:59.383Z,92866.13
2023-04-19T01:48:27.084Z,92863.09
2023-04-19T01:50:54.531Z,92863.88
2023-04-19T01:53:22.050Z,92864.97
2023-04-19T01:55:50.582Z,92860.97
2023-04-19T01:58:18.049Z,92863.19
2023-04-19T02:00:46.348Z,92861.47
2023-04-19T02:03:14.203Z,92865.50
2023-04-19T02:05:42.976Z,92859.66
2023-04-19T02:08:10.345Z,92858.19
2023-04-19T02:10:37.975Z,92859.56
2023-04-19T02:13:05.531Z,92862.56
2023-04-19T02:15:34.234Z,92855.09
2023-04-19T02:18:02.271Z,92859.69
2023-04-19T02:20:29.725Z,92858.47
2023-04-19T02:22:57.061Z,92865.16
2023-04-19T02:25:24.674Z,92862.62
2023-04-19T02:27:52.321Z,92858.25
2023-04-19T02:30:20.043Z,92855.41
2023-04-19T02:32:51.381Z,92850.34
2023-04-19T02:35:19.013Z,92853.19
2023-04-19T02:37:46.186Z,92846.28
2023-04-19T02:40:13.446Z,92856.84
2023-04-19T02:42:41.226Z,92857.19
2023-04-19T02:45:09.394Z,92851.81
2023-04-19T02:47:37.079Z,92851.97
2023-04-19T02:50:05.308Z,92849.25
2023-04-19T02:52:33.188Z,92849.09
2023-04-19T02:55:00.711Z,92851.47
2023-04-19T02:57:28.356Z,92860.19
2023-04-19T02:59:55.684Z,92853.00
2023-04-19T03:02:23.127Z,92857.28
2023-04-19T03:04:51.067Z,92850.75
2023-04-19T03:07:18.508Z,92854.38
2023-04-19T03:09:46.114Z,92843.81
2023-04-19T03:12:13.759Z,92849.66
2023-04-19T03:14:42.226Z,92849.19
2023-04-19T03:17:09.721Z,92851.37
2023-04-19T03:19:37.786Z,92854.22
2023-04-19T03:22:05.634Z,92854.47
2023-04-19T03:24:34.371Z,92852.25
2023-04-19T03:27:05.215Z,92849.66
2023-04-19T03:29:32.630Z,92849.81
2023-04-19T03:32:00.742Z,92842.31
2023-04-19T03:34:29.055Z,92848.59
2023-04-19T03:36:56.544Z,92843.34
2023-04-19T03:39:25.605Z,92845.03
2023-04-19T03:41:54.656Z,92834.91
2023-04-19T03:44:22.676Z,92844.87
2023-04-19T03:46:50.138Z,92844.09
2023-04-19T03:49:18.208Z,92846.38
2023-04-19T03:51:47.004Z,92848.66
2023-04-19T03:54:14.480Z,92832.06
2023-04-19T03:56:42.500Z,92845.81
2023-04-19T03:59:10.264Z,92841.00
2023-04-19T04:01:42.523Z,92838.56
2023-04-19T04:04:12.241Z,92838.88
2023-04-19T04:06:39.764Z,92851.50
2023-04-19T04:09:07.782Z,92849.78
2023-04-19T04:11:35.586Z,92848.53
2023-04-19T04:14:03.057Z,92854.38
2023-04-19T04:16:31.775Z,92848.56
2023-04-19T04:18:59.810Z,92858.81
2023-04-19T04:21:27.432Z,92857.63
2023-04-19T04:23:56.184Z,92855.47
2023-04-19T04:26:26.109Z,92861.41
2023-04-19T04:28:54.245Z,92859.44
2023-04-19T04:31:21.953Z,92852.69
2023-04-19T04:33:51.217Z,92859.75
2023-04-19T04:36:19.318Z,92858.38
2023-04-19T04:38:47.437Z,92857.78
2023-04-19T04:41:15.204Z,92860.59
2023-04-19T04:43:42.723Z,92858.72
2023-04-19T04:46:10.173Z,92857.22
2023-04-19T04:48:38.491Z,92861.09
2023-04-19T04:51:06.164Z,92860.00
2023-04-19T04:53:33.892Z,92859.56
2023-04-19T04:56:02.840Z,92864.25
2023-04-19T04:58:30.636Z,92864.97
2023-04-19T05:00:58.547Z,92861.56
2023-04-19T05:03:28.109Z,92864.94
2023-04-19T05:05:56.988Z,92873.25
2023-04-19T05:08:27.078Z,92871.12
2023-04-19T05:10:55.001Z,92874.84
2023-04-19T05:13:22.891Z,92873.87
2023-04-19T05:15:50.582Z,92875.25
2023-04-19T05:18:17.959Z,92873.97
2023-04-19T05:20:46.953Z,92879.09
2023-04-19T05:23:14.909Z,92874.44
2023-04-19T05:25:42.774Z,92874.84
2023-04-19T05:28:10.792Z,92882.75
2023-04-19T05:30:40.355Z,92877.69
2023-04-19T05:33:07.953Z,92885.19
2023-04-19T05:35:35.298Z,92888.69
2023-04-19T05:38:03.590Z,92887.88
2023-04-19T05:40:31.398Z,92889.47
2023-04-19T05:42:59.037Z,92890.72
2023-04-19T05:45:27.108Z,92892.84
2023-04-19T05:47:54.783Z,92887.16
2023-04-19T05:50:24.619Z,92887.97
2023-04-19T05:52:52.844Z,92887.06
2023-04-19T05:55:20.829Z,92893.50
2023-04-19T05:57:48.265Z,92898.56
2023-04-19T06:00:16.644Z,92892.63
2023-04-19T06:02:45.228Z,92883.28
2023-04-19T06:05:13.047Z,92890.44
2023-04-19T06:07:47.176Z,92894.06
2023-04-19T06:10:23.862Z,92888.28
2023-04-19T06:12:51.520Z,92894.69
2023-04-19T06:15:18.952Z,92895.09
2023-04-19T06:17:46.947Z,92890.75
2023-04-19T06:20:14.403Z,92894.31
2023-04-19T06:22:46.057Z,92894.38
2023-04-19T06:25:13.754Z,92883.63
2023-04-19T06:27:41.224Z,92888.38
2023-04-19T06:30:08.984Z,92892.78
2023-04-19T06:32:36.671Z,92896.06
2023-04-19T06:35:06.346Z,92892.34
2023-04-19T06:37:34.252Z,92898.34
2023-04-19T06:40:01.931Z,92899.69
2023-04-19T06:42:29.540Z,92906.44
2023-04-19T06:44:59.697Z,92899.38
2023-04-19T06:47:27.953Z,92903.25
2023-04-19T06:49:55.470Z,92906.56
2023-04-19T06:52:23.011Z,92916.69
2023-04-19T06:54:51.439Z,92918.13
2023-04-19T06:57:19.237Z,92918.75
2023-04-19T06:59:46.652Z,92913.37
2023-04-19T07:02:14.469Z,92925.03
2023-04-19T07:04:41.960Z,92917.47
2023-04-19T07:07:09.533Z,92921.22
2023-04-19T07:09:37.196Z,92917.97
2023-04-19T07:12:04.544Z,92918.34
2023-04-19T07:14:31.870Z,92917.63
2023-04-19T07:16:59.779Z,92920.59
2023-04-19T07:19:28.402Z,92917.72
2023-04-19T07:21:55.846Z,92911.22
2023-04-19T07:24:23.736Z,92919.34
2023-04-19T07:26:51.294Z,92914.53
2023-04-19T07:29:19.250Z,92914.09
2023-04-19T07:31:46.989Z,92913.84
2023-04-19T07:34:14.681Z,92915.50
2023-04-19T07:36:42.582Z,92912.19
2023-04-19T07:39:10.260Z,92902.94
2023-04-19T07:41:37.689Z,92911.41
2023-04-19T07:44:05.209Z,92913.37
2023-04-19T07:46:33.140Z,92908.03
2023-04-19T07:49:00.521Z,92908.06
2023-04-19T07:51:27.950Z,92908.53
2023-04-19T07:53:55.656Z,92909.53
2023-04-19T07:56:23.186Z,92912.78
2023-04-19T07:59:04.183Z,92909.78
2023-04-19T08:01:35.181Z,92906.00
2023-04-19T08:04:03.803Z,92903.91
2023-04-19T08:06:32.690Z,92912.13
2023-04-19T08:09:00.137Z,92907.59
2023-04-19T08:11:27.940Z,92909.44
2023-04-19T08:14:08.814Z,92907.03
2023-04-19T08:19:09.679Z,92905.09
2023-04-19T08:21:41.330Z,92894.16
2023-04-19T08:24:09.563Z,92892.09
2023-04-19T08:26:36.930Z,92890.28
2023-04-19T08:29:04.272Z,92889.66
2023-04-19T08:31:32.256Z,92891.66
2023-04-19T08:34:00.751Z,92886.94
2023-04-19T08:36:39.197Z,92886.59
2023-04-19T08:39:24.534Z,92890.09
2023-04-19T08:42:10.436Z,92887.47
2023-04-19T08:47:30.052Z,92884.03
2023-04-19T08:50:17.318Z,92883.31
2023-04-19T08:52:58.596Z,92882.72
2023-04-19T08:55:29.761Z,92880.94
2023-04-19T08:57:58.238Z,92873.19
2023-04-19T09:00:25.886Z,92874.09
2023-04-19T09:02:56.972Z,92877.69
2023-04-19T09:05:24.633Z,92861.50
2023-04-19T09:07:52.359Z,92866.91
2023-04-19T09:10:21.374Z,92869.69
2023-04-19T09:13:06.810Z,92859.37
2023-04-19T09:15:43.818Z,92863.19
2023-04-19T09:18:11.458Z,92872.91
2023-04-19T09:20:47.081Z,92850.84
2023-04-19T09:23:17.093Z,92869.81
2023-04-19T09:28:34.994Z,92872.69
2023-04-19T09:31:33.018Z,92869.78
2023-04-19T09:34:18.521Z,92871.12
2023-04-19T09:36:48.913Z,92865.31
2023-04-19T09:39:32.201Z,92872.16
2023-04-19T09:42:00.554Z,92868.47
2023-04-19T09:46:59.115Z,92857.94
2023-04-19T09:49:41.548Z,92857.72
2023-04-19T09:52:15.265Z,92856.34
2023-04-19T09:54:44.506Z,92856.91
2023-04-19T09:57:12.551Z,92849.84
2023-04-19T09:59:40.051Z,92853.50
2023-04-19T10:02:10.977Z,92854.81
2023-04-19T10:04:57.414Z,92849.75
2023-04-19T10:07:30.817Z,92846.16
2023-04-19T10:12:52.391Z,92840.75
2023-04-19T10:15:22.828Z,92842.88
2023-04-19T10:17:51.139Z,92835.06
2023-04-19T10:20:27.355Z,92836.53
2023-04-19T10:22:55.985Z,92838.88
2023-04-19T10:25:30.067Z,92832.00
2023-04-19T10:27:58.339Z,92837.41
2023-04-19T10:30:29.192Z,92825.62
2023-04-19T10:32:58.211Z,92830.91
2023-04-19T10:35:27.728Z,92827.00
2023-04-19T10:38:13.640Z,92836.37
2023-04-19T10:40:57.702Z,92825.03
2023-04-19T10:43:29.730Z,92816.69
2023-04-19T10:46:09.475Z,92818.94
2023-04-19T10:48:39.368Z,92806.13
2023-04-19T10:51:19.390Z,92815.91
2023-04-19T10:53:54.398Z,92801.00
2023-04-19T10:56:34.435Z,92809.12
2023-04-19T10:59:03.116Z,92810.25
2023-04-19T11:01:38.301Z,92802.72
2023-04-19T11:04:06.877Z,92809.19
2023-04-19T11:06:34.679Z,92800.84
2023-04-19T11:09:10.314Z,92800.25
2023-04-19T11:11:38.111Z,92806.19
2023-04-19T11:14:09.249Z,92794.28
2023-04-19T11:16:45.774Z,92792.75
2023-04-19T11:19:17.940Z,92790.25
2023-04-19T11:21:47.586Z,92803.97
2023-04-19T11:24:21.778Z,92795.44
2023-04-19T11:26:49.182Z,92790.81
2023-04-19T11:29:17.364Z,92798.94
2023-04-19T11:31:47.094Z,92798.91
2023-04-19T11:34:15.040Z,92793.59
2023-04-19T11:36:51.069Z,92800.13
2023-04-19T11:39:19.252Z,92793.31
2023-04-19T11:41:49.641Z,92802.34
2023-04-19T11:44:20.683Z,92805.81
2023-04-19T11:46:59.719Z,92800.63
2023-04-19T11:49:32.488Z,92792.53
2023-04-19T11:52:04.601Z,92801.59
2023-04-19T11:54:34.106Z,92792.28
2023-04-19T11:57:09.117Z,92788.75
2023-04-19T11:59:37.191Z,92793.97
2023-04-19T12:02:10.666Z,92795.31
2023-04-19T12:04:39.949Z,92784.72
2023-04-19T12:07:07.769Z,92781.38
2023-04-19T12:09:36.725Z,92781.94
2023-04-19T12:12:04.758Z,92780.63
2023-04-19T12:14:32.217Z,92774.94
2023-04-19T12:17:14.835Z,92773.34
2023-04-19T12:19:46.403Z,92770.53
2023-04-19T12:22:22.194Z,92769.66
2023-04-19T12:24:53.930Z,92784.88
2023-04-19T12:27:21.372Z,92785.94
2023-04-19T12:29:48.731Z,92783.66
2023-04-19T12:32:16.980Z,92782.91
2023-04-19T12:34:44.401Z,92782.59
2023-04-19T12:37:11.822Z,92780.63
2023-04-19T12:39:39.596Z,92767.63
2023-04-19T12:42:07.013Z,92780.63
2023-04-19T12:44:34.513Z,92777.59
2023-04-19T12:47:02.395Z,92778.31
2023-04-19T12:49:29.738Z,92780.28
2023-04-19T12:51:57.478Z,92773.47
2023-04-19T12:54:25.437Z,92775.16
2023-04-19T12:56:53.336Z,92789.78
2023-04-19T12:59:22.261Z,92786.34
2023-04-19T13:01:50.181Z,92791.94
2023-04-19T13:04:18.059Z,92784.81
2023-04-19T13:06:46.125Z,92795.84
2023-04-19T13:09:14.826Z,92789.19
2023-04-19T13:11:42.758Z,92793.56
2023-04-19T13:14:10.220Z,92784.50
2023-04-19T13:16:38.289Z,92781.78
2023-04-19T13:19:06.200Z,92779.50
2023-04-19T13:21:33.688Z,92780.50
2023-04-19T13:24:01.437Z,92778.09
2023-04-19T13:26:28.953Z,92768.34
2023-04-19T13:28:56.791Z,92756.12
2023-04-19T13:31:27.250Z,92763.84
2023-04-19T13:33:55.320Z,92757.78
2023-04-19T13:36:23.053Z,92753.53
2023-04-19T13:38:50.739Z,92753.97
2023-04-19T13:41:18.070Z,92760.59
2023-04-19T13:43:45.986Z,92779.81
2023-04-19T13:46:14.210Z,92797.72
2023-04-19T13:48:41.541Z,92785.91
2023-04-19T13:51:09.152Z,92790.72
2023-04-19T13:53:36.860Z,92805.44
2023-04-19T13:56:04.536Z,92805.44
2023-04-19T13:58:32.015Z,92801.50
2023-04-19T14:00:59.773Z,92806.22
2023-04-19T14:03:27.757Z,92811.22
2023-04-19T14:05:55.479Z,92813.28
2023-04-19T14:08:22.913Z,92818.53
2023-04-19T14:10:51.142Z,92817.16
2023-04-19T14:13:18.582Z,92811.97
2023-04-19T14:15:46.617Z,92813.56
2023-04-19T14:18:14.323Z,92813.81
2023-04-19T14:20:41.716Z,92810.94
2023-04-19T14:23:09.569Z,92812.81
2023-04-19T14:25:37.301Z,92808.34
2023-04-19T14:28:04.792Z,92809.91
2023-04-19T14:30:32.321Z,92814.63
2023-04-19T14:33:00.441Z,92808.59
2023-04-19T14:35:30.868Z,92809.88
2023-04-19T14:37:58.348Z,92806.47
2023-04-19T14:40:26.153Z,92806.97
2023-04-19T14:42:53.629Z,92801.22
2023-04-19T14:45:21.108Z,92805.63
2023-04-19T14:47:50.068Z,92806.44
2023-04-19T14:50:17.387Z,92808.78
2023-04-19T14:52:44.763Z,92807.19
2023-04-19T14:55:12.487Z,92810.09
2023-04-19T14:57:39.844Z,92807.19
2023-04-19T15:00:08.126Z,92811.16
2023-04-19T15:02:36.240Z,92809.62
2023-04-19T15:05:04.022Z,92808.50
2023-04-19T15:07:31.538Z,92810.88
2023-04-19T15:09:59.550Z,92808.56
2023-04-19T15:12:26.932Z,92813.81
2023-04-19T15:14:54.294Z,92818.31
2023-04-19T15:17:22.023Z,92818.28
2023-04-19T15:19:49.615Z,92817.50
2023-04-19T15:22:17.103Z,92818.56
2023-04-19T15:24:44.987Z,92823.03
2023-04-19T15:27:13.080Z,92823.00
2023-04-19T15:29:41.449Z,92817.72
2023-04-19T15:32:09.355Z,92824.81
2023-04-19T15:34:37.012Z,92832.19
2023-04-19T15:37:06.620Z,92826.69
2023-04-19T15:39:34.293Z,92830.31
2023-04-19T15:42:02.330Z,92825.84
2023-04-19T15:44:30.239Z,92821.69
2023-04-19T15:46:58.046Z,92829.06
2023-04-19T15:49:25.464Z,92831.66
2023-04-19T15:51:52.833Z,92830.34
2023-04-19T15:54:22.155Z,92826.44
2023-04-19T15:56:49.483Z,92825.91
2023-04-19T15:59:17.247Z,92829.84
2023-04-19T16:01:45.142Z,92826.94
2023-04-19T16:04:13.119Z,92826.41
2023-04-19T16:06:40.851Z,92821.16
2023-04-19T16:09:09.348Z,92817.47
2023-04-19T16:11:37.327Z,92823.28
2023-04-19T16:14:04.821Z,92825.41
2023-04-19T16:16:34.432Z,92824.06
2023-04-19T16:19:02.248Z,92831.16
2023-04-19T16:21:29.745Z,92837.50
2023-04-19T16:23:57.108Z,92840.38
2023-04-19T16:26:24.858Z,92843.78
2023-04-19T16:28:52.349Z,92845.91
2023-04-19T16:31:19.744Z,92843.50
2023-04-19T16:33:47.419Z,92854.78
2023-04-19T16:36:15.996Z,92859.50
2023-04-19T16:38:43.415Z,92857.91
2023-04-19T16:41:11.982Z,92864.16
2023-04-19T16:43:39.432Z,92860.47
2023-04-19T16:46:07.582Z,92863.62
2023-04-19T16:48:35.320Z,92860.81
2023-04-19T16:51:02.697Z,92860.44
2023-04-19T16:53:31.469Z,92861.28
2023-04-19T16:56:00.556Z,92865.06
2023-04-19T16:58:27.889Z,92868.25
2023-04-19T17:00:57.120Z,92865.53
2023-04-19T17:03:25.003Z,92871.06
2023-04-19T17:05:52.404Z,92868.53
2023-04-19T17:08:21.724Z,92871.56
2023-04-19T17:10:49.785Z,92876.38
2023-04-19T17:13:17.098Z,92886.28
2023-04-19T17:15:44.609Z,92883.56
2023-04-19T17:18:12.457Z,92884.94
2023-04-19T17:20:39.927Z,92891.66
2023-04-19T17:23:07.333Z,92892.81
2023-04-19T17:25:35.113Z,92896.75
2023-04-19T17:28:02.539Z,92901.44
2023-04-19T17:30:29.912Z,92900.31
2023-04-19T17:32:57.646Z,92900.38
2023-04-19T17:35:26.307Z,92909.06
2023-04-19T17:37:53.622Z,92911.25
2023-04-19T17:40:21.577Z,92913.81
2023-04-19T17:42:48.938Z,92914.88
2023-04-19T17:45:16.657Z,92913.81
2023-04-19T17:47:44.592Z,92922.91
2023-04-19T17:50:13.717Z,92928.72
2023-04-19T17:52:42.184Z,92932.41
2023-04-19T17:55:09.944Z,92933.59
2023-04-19T17:57:37.390Z,92937.06
2023-04-19T18:00:07.931Z,92944.25
2023-04-19T18:02:36.798Z,92941.47
2023-04-19T18:05:05.056Z,92949.78
2023-04-19T18:07:32.419Z,92953.09
2023-04-19T18:10:00.456Z,92958.53
2023-04-19T18:12:28.801Z,92957.50
2023-04-19T18:14:57.244Z,92962.94
2023-04-19T18:17:24.691Z,92967.09
2023-04-19T18:19:52.772Z,92967.19
2023-04-19T18:22:20.190Z,92964.84
2023-04-19T18:24:47.619Z,92973.41
2023-04-19T18:27:15.993Z,92977.19
2023-04-19T18:29:43.862Z,92972.81
2023-04-19T18:32:11.626Z,92967.97
2023-04-19T18:34:39.796Z,92985.12
2023-04-19T18:37:15.836Z,92983.69
2023-04-19T18:39:44.075Z,92988.78
2023-04-19T18:42:11.691Z,92987.81
2023-04-19T18:44:52.850Z,93000.81
2023-04-19T18:47:22.453Z,93002.09
2023-04-19T18:50:03.592Z,93005.69
2023-04-19T18:52:34.308Z,92999.97
2023-04-19T18:55:02.469Z,93005.06
2023-04-19T18:57:34.245Z,93003.06
2023-04-19T19:00:06.315Z,93010.13
2023-04-19T19:02:36.432Z,93006.78
2023-04-19T19:05:07.967Z,93005.09
2023-04-19T19:07:37.980Z,93008.59
2023-04-19T19:10:17.316Z,93008.75
2023-04-19T19:12:48.494Z,93015.94
2023-04-19T19:15:16.712Z,93008.19
2023-04-19T19:17:49.240Z,93004.59
2023-04-19T19:20:19.635Z,93007.41
2023-04-19T19:22:47.237Z,93007.22
2023-04-19T19:25:14.836Z,93008.34
2023-04-19T19:28:02.233Z,93002.16
2023-04-19T19:30:34.030Z,93006.94
2023-04-19T19:33:03.053Z,93011.69
2023-04-19T19:35:30.812Z,93020.94
2023-04-19T19:37:58.527Z,93012.13
2023-04-19T19:40:29.126Z,93014.91
2023-04-19T19:42:58.825Z,93017.25
2023-04-19T19:45:31.018Z,93017.06
2023-04-19T19:48:01.815Z,93013.34
2023-04-19T19:53:00.933Z,93014.47
2023-04-19T19:55:29.015Z,93014.38
2023-04-19T20:02:58.985Z,93021.91
2023-04-19T20:05:27.312Z,93018.91
2023-04-19T20:08:09.782Z,93021.97
2023-04-19T20:10:39.322Z,93025.44
2023-04-19T20:13:06.952Z,93028.00
2023-04-19T20:15:35.968Z,93025.78
2023-04-19T20:18:04.478Z,93025.19
2023-04-19T20:20:32.141Z,93029.53
2023-04-19T20:22:59.522Z,93029.41
2023-04-19T20:25:27.350Z,93031.47
2023-04-19T20:27:55.245Z,93033.47
2023-04-19T20:30:22.634Z,93034.87
2023-04-19T20:32:50.671Z,93031.72
2023-04-19T20:35:18.291Z,93030.75
2023-04-19T20:37:46.754Z,93031.78
2023-04-19T20:40:16.325Z,93035.59
2023-04-19T20:42:45.090Z,93038.53
2023-04-19T20:45:14.517Z,93028.72
2023-04-19T20:47:43.010Z,93027.25
2023-04-19T20:50:10.781Z,93028.22
2023-04-19T20:52:38.360Z,93025.63
2023-04-19T20:55:06.819Z,93030.84
2023-04-19T20:57:34.101Z,93031.31
2023-04-19T21:00:01.523Z,93035.44
2023-04-19T21:02:31.241Z,93037.25
2023-04-19T21:04:58.587Z,93032.50
2023-04-19T21:07:26.001Z,93022.69
2023-04-19T21:09:53.697Z,93022.44
2023-04-19T21:12:21.361Z,93018.75
2023-04-19T21:14:51.020Z,93017.06
2023-04-19T21:17:18.944Z,93026.97
2023-04-19T21:19:46.290Z,93024.59
2023-04-19T21:22:13.685Z,93019.03
2023-04-19T21:24:41.388Z,93020.16
2023-04-19T21:27:08.792Z,93018.03
2023-04-19T21:29:36.247Z,93025.28
2023-04-19T21:32:03.958Z,93017.63
2023-04-19T21:34:31.434Z,93016.91
2023-04-19T21:36:58.741Z,93006.03
2023-04-19T21:39:26.389Z,93011.59
2023-04-19T21:41:53.673Z,93017.28
2023-04-19T21:44:20.945Z,93020.84
2023-04-19T21:46:48.686Z,93023.47
2023-04-19T21:49:16.248Z,93027.87
2023-04-19T21:51:43.795Z,93024.53
2023-04-19T21:54:15.786Z,93021.91
2023-04-19T21:56:47.724Z,93033.87
2023-04-19T21:59:15.703Z,93023.88
2023-04-19T22:01:43.355Z,93027.50
2023-04-19T22:04:12.296Z,93036.41
2023-04-19T22:06:40.647Z,93033.87
2023-04-19T22:09:07.977Z,93026.41
2023-04-19T22:11:35.703Z,93026.47
2023-04-19T22:14:03.184Z,93029.13
2023-04-19T22:16:32.930Z,93037.84
2023-04-19T22:19:01.704Z,93037.97
2023-04-19T22:21:29.048Z,93028.78
2023-04-19T22:23:56.458Z,93035.47
2023-04-19T22:26:26.188Z,93029.94
2023-04-19T22:28:54.057Z,93032.94
2023-04-19T22:31:21.634Z,93025.44
2023-04-19T22:33:49.227Z,93031.78
2023-04-19T22:36:16.857Z,93028.53
2023-04-19T22:38:44.248Z,93034.87
2023-04-19T22:41:11.828Z,93027.53
2023-04-19T22:43:39.275Z,93029.44
2023-04-19T22:46:06.646Z,93022.78
2023-04-19T22:48:34.385Z,93027.87
2023-04-19T22:51:02.010Z,93025.16
2023-04-19T22:53:29.446Z,93025.84
2023-04-19T22:55:57.081Z,93028.00
2023-04-19T22:58:25.336Z,93024.91
2023-04-19T23:00:52.800Z,93021.47
2023-04-19T23:03:20.608Z,93017.28
2023-04-19T23:05:48.182Z,93019.56
2023-04-19T23:08:15.838Z,93004.00
2023-04-19T23:10:43.786Z,93005.81
2023-04-19T23:13:11.281Z,93008.69
2023-04-19T23:15:39.753Z,93011.09
2023-04-19T23:18:07.943Z,93012.13
2023-04-19T23:20:35.876Z,93006.09
2023-04-19T23:23:03.593Z,93006.91
2023-04-19T23:25:31.568Z,93001.66
2023-04-19T23:27:58.937Z,93001.53
2023-04-19T23:30:26.366Z,92998.69
2023-04-19T23:32:53.998Z,92997.34
2023-04-19T23:35:21.395Z,93003.91
2023-04-19T23:37:48.781Z,92992.84
2023-04-19T23:40:16.327Z,92997.50
2023-04-19T23:42:43.634Z,92993.41
2023-04-19T23:45:11.646Z,92989.03
2023-04-19T23:47:39.343Z,92988.66
2023-04-19T23:50:07.220Z,92987.56
2023-04-19T23:52:35.769Z,92984.69
2023-04-19T23:55:03.735Z,92979.91
2023-04-19T23:57:34.390Z,92973.00
